RPLL/MNL METAR and TAF weather

Enter ICAO airport designator
Station Type Date Time Source
RPLL METAR 2019/04/25 01:00 UTC NOAA

RPLL 250100Z 18012KT 9999 FEW025 30/22 Q1010 NOSIG RMK A2983


Station Type Date Time Source
RPLL Decoded METAR 2019/04/25 01:00 UTC NOAA

Ninoy Aquino Inter-National Airport, Philippines (RPLL) 14-31N 121-00E 15M
Apr 24, 2019 - 09:00 PM EDT / 2019.04.25 0100 UTC
Wind: from the S (180 degrees) at 14 MPH (12 KT):0
Visibility: greater than 7 mile(s):0
Sky conditions: mostly clear
Temperature: 86 F (30 C)
Heat index: 91.8 F (33.2 C):1
Dew Point: 71 F (22 C)
Relative Humidity: 62%
Pressure (altimeter): 29.83 in. Hg (1010 hPa)
ob: RPLL 250100Z 18012KT 9999 FEW025 30/22 Q1010 NOSIG RMK A2983
cycle: 1

Station Type Date Time Source
RPLL TAF 2019/04/24 18:58 UTC NOAA

TAF RPLL 241700Z 2418/2524 11008KT 9999 FEW025 TX36/2506Z TN27/2421Z
TEMPO 2418/2424 09010KT FEW023 SCT300
TEMPO 2503/2509 12014KT

Example: see airport list